Time;durP1;ratioP1;P1;durP2;ratioP2;P2;SDS_P1;SDS_P2;PMS_P1;PMS_P2;Temp;Humidity;BMP_temperature;BMP_pressure;BME280_temperature;BME280_humidity;BME280_pressure;Samples;Min_cycle;Max_cycle;Signal;HPM_P1;HPM_P2
2023/04/08 00:01:35;;;;;;;5.50;1.60;;;;;;;;;;4898326;29;20941;-91
2023/04/08 00:04:09;;;;;;;3.67;1.63;;;;;;;;;;4898312;29;20478;-90
2023/04/08 00:13:25;;;;;;;4.80;1.60;;;;;;;;;;4898929;29;20940;-90
2023/04/08 00:19:15;;;;;;;15.93;2.23;;;;;;;;;;4898866;29;20493;-91
2023/04/08 00:21:58;;;;;;;12.57;2.17;;;;;;;;;;4867222;29;20489;-91
2023/04/08 00:25:01;;;;;;;6.13;1.70;;;;;;;;;;4867234;29;20847;-91
2023/04/08 00:27:54;;;;;;;7.53;1.77;;;;;;;;;;4864158;29;20474;-91
2023/04/08 00:33:57;;;;;;;5.47;1.70;;;;;;;;;;4899025;29;20960;-91
2023/04/08 00:36:39;;;;;;;5.97;1.73;;;;;;;;;;4882831;29;20459;-91
2023/04/08 00:39:06;;;;;;;5.40;1.87;;;;;;;;;;4876164;29;20457;-91
2023/04/08 00:41:35;;;;;;;11.50;2.20;;;;;;;;;;4871599;29;20481;-92
2023/04/08 00:47:34;;;;;;;4.33;1.63;;;;;;;;;;4898755;29;20437;-93
2023/04/08 00:53:05;;;;;;;3.90;1.60;;;;;;;;;;4896157;29;21040;-93
2023/04/08 00:59:25;;;;;;;6.07;1.90;;;;;;;;;;4898633;29;20499;-92
2023/04/08 01:05:34;;;;;;;5.57;2.00;;;;;;;;;;4900868;29;20512;-93
2023/04/08 01:08:28;;;;;;;13.67;2.50;;;;;;;;;;4870461;29;20461;-93
2023/04/08 01:21:36;;;;;;;8.90;1.83;;;;;;;;;;4901767;29;20476;-93
2023/04/08 01:24:05;;;;;;;4.20;2.17;;;;;;;;;;4900909;29;20868;-92
2023/04/08 01:26:33;;;;;;;2.80;1.20;;;;;;;;;;4901099;29;20959;-93
2023/04/08 01:35:57;;;;;;;18.33;1.80;;;;;;;;;;4901851;29;20428;-91
2023/04/08 01:38:32;;;;;;;7.80;1.63;;;;;;;;;;4883970;29;20454;-92
2023/04/08 01:41:08;;;;;;;8.00;2.00;;;;;;;;;;4900254;29;20513;-91
2023/04/08 01:46:54;;;;;;;8.43;1.80;;;;;;;;;;4901550;29;20489;-91
2023/04/08 01:49:54;;;;;;;3.20;1.57;;;;;;;;;;4898297;29;21028;-92
2023/04/08 01:55:55;;;;;;;6.97;1.87;;;;;;;;;;4882681;29;20464;-92
2023/04/08 02:01:33;;;;;;;4.37;1.90;;;;;;;;;;4900759;29;20478;-92
2023/04/08 02:07:53;;;;;;;5.80;1.70;;;;;;;;;;4901117;29;20466;-92
2023/04/08 02:10:23;;;;;;;5.90;1.70;;;;;;;;;;4924111;29;20484;-93
2023/04/08 02:16:15;;;;;;;3.20;1.30;;;;;;;;;;4921684;29;20432;-91
2023/04/08 02:18:59;;;;;;;5.77;1.50;;;;;;;;;;4887942;29;20813;-91
2023/04/08 02:25:00;;;;;;;6.63;1.50;;;;;;;;;;4919141;29;20460;-91
2023/04/08 02:27:27;;;;;;;6.80;1.63;;;;;;;;;;4902713;29;20449;-91
2023/04/08 02:33:35;;;;;;;3.00;1.63;;;;;;;;;;4916314;29;20424;-92
2023/04/08 02:36:26;;;;;;;5.20;1.30;;;;;;;;;;4892125;29;20453;-91
2023/04/08 02:39:08;;;;;;;5.03;1.30;;;;;;;;;;4930156;29;20544;-92
2023/04/08 02:42:05;;;;;;;7.50;1.60;;;;;;;;;;4933112;29;20554;-91
2023/04/08 02:48:10;;;;;;;9.70;2.23;;;;;;;;;;4918721;29;20900;-91
2023/04/08 02:57:11;;;;;;;9.80;1.70;;;;;;;;;;4917700;29;20436;-91
2023/04/08 02:59:56;;;;;;;9.70;1.80;;;;;;;;;;4887250;29;20811;-92
2023/04/08 03:08:53;;;;;;;9.50;1.60;;;;;;;;;;4917987;29;20431;-92
2023/04/08 03:11:30;;;;;;;4.13;1.30;;;;;;;;;;4886721;29;20452;-91
2023/04/08 03:14:13;;;;;;;7.70;1.80;;;;;;;;;;4883872;29;20445;-91
2023/04/08 03:26:42;;;;;;;9.33;1.90;;;;;;;;;;4917694;29;20531;-92
2023/04/08 03:29:41;;;;;;;3.00;1.20;;;;;;;;;;4916328;29;20433;-92
2023/04/08 03:42:16;;;;;;;4.33;1.30;;;;;;;;;;4917681;29;20471;-92
2023/04/08 03:48:11;;;;;;;3.33;1.40;;;;;;;;;;4900240;29;20427;-91
2023/04/08 03:54:06;;;;;;;2.73;1.50;;;;;;;;;;4917163;29;20572;-91
2023/04/08 03:56:46;;;;;;;4.73;1.20;;;;;;;;;;4901447;29;20441;-91
2023/04/08 04:02:35;;;;;;;4.43;2.00;;;;;;;;;;4918018;29;20464;-91
2023/04/08 04:08:36;;;;;;;6.20;1.20;;;;;;;;;;4917981;29;20448;-91
2023/04/08 04:15:05;;;;;;;5.80;1.40;;;;;;;;;;4917817;29;20440;-91
2023/04/08 04:21:04;;;;;;;3.10;1.07;;;;;;;;;;4917618;29;20594;-91
2023/04/08 04:26:53;;;;;;;6.20;1.10;;;;;;;;;;4917803;29;20428;-91
2023/04/08 04:32:48;;;;;;;6.07;1.87;;;;;;;;;;4910096;29;20873;-91
2023/04/08 04:35:18;;;;;;;2.80;1.10;;;;;;;;;;4885645;29;20452;-91
2023/04/08 04:41:14;;;;;;;6.13;1.10;;;;;;;;;;4921319;29;20518;-91
2023/04/08 04:43:49;;;;;;;6.47;1.50;;;;;;;;;;4890686;29;20460;-92
2023/04/08 04:53:07;;;;;;;5.43;1.17;;;;;;;;;;4902761;29;20536;-92
2023/04/08 05:05:07;;;;;;;4.43;1.40;;;;;;;;;;4920516;29;20515;-91
2023/04/08 05:11:03;;;;;;;3.43;1.13;;;;;;;;;;4920429;29;20495;-92
2023/04/08 05:13:47;;;;;;;7.90;1.40;;;;;;;;;;4903893;29;20452;-92
2023/04/08 05:19:36;;;;;;;4.13;1.10;;;;;;;;;;4920641;29;20499;-91
2023/04/08 05:22:04;;;;;;;6.93;1.23;;;;;;;;;;4888787;29;20487;-91
2023/04/08 05:24:32;;;;;;;4.03;1.27;;;;;;;;;;4888570;29;20455;-90
2023/04/08 05:27:20;;;;;;;6.53;1.50;;;;;;;;;;4888810;29;20495;-90
2023/04/08 05:29:58;;;;;;;7.00;1.43;;;;;;;;;;4920583;29;20445;-91
2023/04/08 05:36:29;;;;;;;6.80;2.20;;;;;;;;;;4920744;29;20509;-91
2023/04/08 05:42:04;;;;;;;9.60;1.73;;;;;;;;;;4920551;29;20584;-92
2023/04/08 05:48:10;;;;;;;4.70;1.17;;;;;;;;;;4881364;29;20451;-91
2023/04/08 05:50:42;;;;;;;2.00;1.23;;;;;;;;;;4895908;29;20921;-91
2023/04/08 05:53:23;;;;;;;12.87;1.90;;;;;;;;;;4880743;29;20963;-91
2023/04/08 05:55:51;;;;;;;7.93;2.07;;;;;;;;;;4862467;29;20470;-91
2023/04/08 06:05:18;;;;;;;8.50;1.30;;;;;;;;;;4880669;29;20445;-91
2023/04/08 06:07:55;;;;;;;8.90;1.63;;;;;;;;;;4894516;29;20451;-90
2023/04/08 06:10:22;;;;;;;13.87;1.90;;;;;;;;;;4864656;29;20485;-90
2023/04/08 06:12:51;;;;;;;8.63;1.63;;;;;;;;;;4865542;29;20446;-90
2023/04/08 06:18:57;;;;;;;3.57;1.40;;;;;;;;;;4880098;29;20472;-90
2023/04/08 06:21:26;;;;;;;7.80;1.77;;;;;;;;;;4880709;29;20562;-92
2023/04/08 06:27:15;;;;;;;9.97;1.50;;;;;;;;;;4919700;29;20854;-92
2023/04/08 06:29:43;;;;;;;4.13;1.47;;;;;;;;;;4903085;29;20456;-91
2023/04/08 06:32:35;;;;;;;12.80;1.20;;;;;;;;;;4893452;29;20456;-91
2023/04/08 06:38:25;;;;;;;9.30;2.73;;;;;;;;;;4919048;29;20488;-92
2023/04/08 06:41:21;;;;;;;10.73;2.00;;;;;;;;;;4902537;29;20445;-92
2023/04/08 06:47:17;;;;;;;10.00;2.00;;;;;;;;;;4900509;29;20452;-90
2023/04/08 06:56:25;;;;;;;12.57;1.97;;;;;;;;;;4900615;29;20460;-91
2023/04/08 07:12:25;;;;;;;21.27;2.87;;;;;;;;;;4900426;29;20474;-92
2023/04/08 07:24:49;;;;;;;28.63;3.93;;;;;;;;;;4899596;29;20535;-91
2023/04/08 07:30:45;;;;;;;29.27;4.13;;;;;;;;;;4899701;29;20433;-92
2023/04/08 07:33:13;;;;;;;25.97;3.80;;;;;;;;;;4882863;29;20464;-91
2023/04/08 07:39:05;;;;;;;18.63;2.70;;;;;;;;;;4898545;29;20441;-92
2023/04/08 07:48:18;;;;;;;7.23;1.60;;;;;;;;;;4899185;29;20508;-92
2023/04/08 07:50:53;;;;;;;8.40;1.90;;;;;;;;;;4882955;29;20450;-92
2023/04/08 07:57:18;;;;;;;10.83;1.87;;;;;;;;;;4899185;29;20469;-92
2023/04/08 08:03:07;;;;;;;11.53;1.37;;;;;;;;;;4898902;29;20457;-91
2023/04/08 08:16:32;;;;;;;3.43;0.97;;;;;;;;;;4903253;29;21061;-91
2023/04/08 08:19:03;;;;;;;3.60;1.10;;;;;;;;;;4898134;29;20458;-91
2023/04/08 08:24:58;;;;;;;5.87;1.30;;;;;;;;;;4901151;29;20955;-92
2023/04/08 08:30:55;;;;;;;8.83;1.87;;;;;;;;;;4884150;29;20469;-92
2023/04/08 08:33:47;;;;;;;2.50;1.13;;;;;;;;;;4867955;29;20485;-93
2023/04/08 08:36:23;;;;;;;6.83;1.00;;;;;;;;;;4883284;29;20477;-93
2023/04/08 08:38:52;;;;;;;6.17;1.03;;;;;;;;;;4886715;29;20491;-92
2023/04/08 08:41:36;;;;;;;11.67;1.70;;;;;;;;;;4897725;29;20541;-92
2023/04/08 08:44:40;;;;;;;7.37;1.40;;;;;;;;;;4871493;29;20477;-92
2023/04/08 08:47:08;;;;;;;8.30;1.30;;;;;;;;;;4893916;29;20807;-92
2023/04/08 08:56:34;;;;;;;5.40;1.00;;;;;;;;;;4902530;29;20442;-92
2023/04/08 08:59:20;;;;;;;4.63;0.93;;;;;;;;;;4886337;29;20540;-93
2023/04/08 09:08:25;;;;;;;6.00;1.53;;;;;;;;;;4902026;29;20435;-91
2023/04/08 09:14:23;;;;;;;4.40;1.00;;;;;;;;;;4902538;29;20791;-91
2023/04/08 09:17:29;;;;;;;3.87;1.20;;;;;;;;;;4888241;29;20505;-96
2023/04/08 09:20:22;;;;;;;1.60;0.80;;;;;;;;;;4917071;29;20486;-92
2023/04/08 09:23:02;;;;;;;7.80;1.60;;;;;;;;;;4900625;29;20560;-93
2023/04/08 09:25:55;;;;;;;3.57;0.97;;;;;;;;;;4883273;29;20468;-92
2023/04/08 09:28:28;;;;;;;13.27;1.30;;;;;;;;;;4900406;29;20508;-92
2023/04/08 09:55:46;;;;;;;5.53;0.93;;;;;;;;;;4901399;29;20442;-93
2023/04/08 09:58:54;;;;;;;3.97;1.17;;;;;;;;;;4903541;29;20811;-93
2023/04/08 10:01:41;;;;;;;10.43;1.13;;;;;;;;;;4874982;29;20446;-93
2023/04/08 10:04:11;;;;;;;5.47;1.10;;;;;;;;;;4876566;29;20443;-93
2023/04/08 10:10:06;;;;;;;5.80;1.17;;;;;;;;;;4898670;29;20539;-93
2023/04/08 10:13:03;;;;;;;2.57;1.00;;;;;;;;;;4889929;29;20538;-92
2023/04/08 10:15:46;;;;;;;5.67;0.90;;;;;;;;;;4919249;29;20445;-92
2023/04/08 10:21:46;;;;;;;10.03;1.30;;;;;;;;;;4918820;29;20444;-92
2023/04/08 10:27:51;;;;;;;2.20;0.97;;;;;;;;;;4920796;29;20471;-93
2023/04/08 10:30:45;;;;;;;8.83;1.80;;;;;;;;;;4918772;29;20528;-96
2023/04/08 10:37:17;;;;;;;6.50;1.60;;;;;;;;;;4919769;29;20432;-93
2023/04/08 10:43:10;;;;;;;11.27;1.30;;;;;;;;;;4921780;29;20879;-96
2023/04/08 10:52:53;;;;;;;11.03;1.63;;;;;;;;;;4920099;29;20412;-93
2023/04/08 10:55:25;;;;;;;6.37;1.20;;;;;;;;;;4916358;29;20441;-92
2023/04/08 11:01:04;;;;;;;8.43;0.93;;;;;;;;;;4900313;29;20458;-92
2023/04/08 11:03:49;;;;;;;4.47;1.20;;;;;;;;;;4883650;29;20870;-90
2023/04/08 11:06:26;;;;;;;10.07;1.40;;;;;;;;;;4898002;29;20939;-89
2023/04/08 11:09:00;;;;;;;5.93;1.33;;;;;;;;;;4914356;29;20442;-89
2023/04/08 11:11:28;;;;;;;4.77;1.10;;;;;;;;;;4913305;29;20877;-89
2023/04/08 11:13:56;;;;;;;5.60;1.20;;;;;;;;;;4883076;29;20450;-89
2023/04/08 11:16:24;;;;;;;5.67;1.17;;;;;;;;;;4898338;29;20464;-89
2023/04/08 11:18:52;;;;;;;7.77;1.33;;;;;;;;;;4897948;29;20824;-89
2023/04/08 11:21:21;;;;;;;10.20;1.97;;;;;;;;;;4882552;29;20509;-89
2023/04/08 11:23:49;;;;;;;5.93;1.10;;;;;;;;;;4882945;29;20493;-89
2023/04/08 11:26:20;;;;;;;10.13;1.53;;;;;;;;;;4898017;29;20454;-89
2023/04/08 11:28:50;;;;;;;9.33;1.30;;;;;;;;;;4897989;29;20958;-89
2023/04/08 11:31:18;;;;;;;7.13;1.47;;;;;;;;;;4882841;29;20457;-89
2023/04/08 11:33:54;;;;;;;9.50;1.57;;;;;;;;;;4897941;29;20876;-89
2023/04/08 11:36:21;;;;;;;12.30;1.60;;;;;;;;;;4913083;29;20461;-89
2023/04/08 11:38:49;;;;;;;8.43;1.20;;;;;;;;;;4897718;29;20542;-89
2023/04/08 11:41:17;;;;;;;8.20;2.10;;;;;;;;;;4897704;29;20559;-89
2023/04/08 11:43:54;;;;;;;7.07;1.33;;;;;;;;;;4897881;29;20494;-89
2023/04/08 11:46:21;;;;;;;15.73;1.30;;;;;;;;;;4882174;29;20927;-89
2023/04/08 11:49:00;;;;;;;8.87;1.70;;;;;;;;;;4897033;29;20449;-90
2023/04/08 11:51:27;;;;;;;3.73;1.43;;;;;;;;;;4897549;29;20446;-89
2023/04/08 11:53:57;;;;;;;7.90;1.17;;;;;;;;;;4882276;29;20458;-89
2023/04/08 11:56:24;;;;;;;8.87;1.23;;;;;;;;;;4897817;29;20475;-89
2023/04/08 11:58:54;;;;;;;10.27;1.40;;;;;;;;;;4897598;29;20874;-89
2023/04/08 12:01:22;;;;;;;7.00;1.63;;;;;;;;;;4897515;29;20461;-89
2023/04/08 12:03:56;;;;;;;8.40;1.53;;;;;;;;;;4897378;29;20561;-88
2023/04/08 12:06:26;;;;;;;5.63;1.77;;;;;;;;;;4882254;29;20445;-89
2023/04/08 12:08:54;;;;;;;8.23;2.10;;;;;;;;;;4882172;29;20944;-90
2023/04/08 12:11:21;;;;;;;12.33;1.50;;;;;;;;;;4900876;29;20468;-89
2023/04/08 12:13:49;;;;;;;7.17;1.20;;;;;;;;;;4897549;29;20462;-89
2023/04/08 12:16:23;;;;;;;10.80;1.43;;;;;;;;;;4882263;29;20446;-89
2023/04/08 12:18:51;;;;;;;6.83;1.87;;;;;;;;;;4897295;29;20489;-89
2023/04/08 12:21:19;;;;;;;6.90;1.60;;;;;;;;;;4897463;29;20943;-90
2023/04/08 12:23:46;;;;;;;8.00;2.03;;;;;;;;;;4897308;29;20493;-90
2023/04/08 12:26:16;;;;;;;6.60;1.53;;;;;;;;;;4897220;29;20939;-90
2023/04/08 12:28:45;;;;;;;9.20;1.87;;;;;;;;;;4897425;29;20450;-89
2023/04/08 12:31:12;;;;;;;7.03;1.40;;;;;;;;;;4897396;29;20454;-89
2023/04/08 12:33:39;;;;;;;6.20;1.50;;;;;;;;;;4881742;29;20498;-89
2023/04/08 12:36:08;;;;;;;5.80;1.47;;;;;;;;;;4897409;29;20961;-90
2023/04/08 12:38:39;;;;;;;14.83;2.13;;;;;;;;;;4882174;29;20494;-89
2023/04/08 12:41:06;;;;;;;4.80;1.40;;;;;;;;;;4881409;29;20453;-90
2023/04/08 12:43:34;;;;;;;7.03;1.70;;;;;;;;;;4881653;29;20489;-89
2023/04/08 12:46:02;;;;;;;3.70;1.13;;;;;;;;;;4895049;29;20465;-89
2023/04/08 12:48:30;;;;;;;8.43;1.80;;;;;;;;;;4897334;29;20500;-89
2023/04/08 12:50:57;;;;;;;14.60;1.83;;;;;;;;;;4882001;29;20468;-89
2023/04/08 12:53:25;;;;;;;7.83;1.87;;;;;;;;;;4881884;29;20820;-89
2023/04/08 12:55:55;;;;;;;9.47;1.80;;;;;;;;;;4882065;29;20529;-89
2023/04/08 12:58:24;;;;;;;9.50;1.40;;;;;;;;;;4882080;29;20442;-90
2023/04/08 13:00:51;;;;;;;7.93;1.40;;;;;;;;;;4883353;29;20464;-90
2023/04/08 13:03:19;;;;;;;5.93;1.60;;;;;;;;;;4885285;29;20501;-89
2023/04/08 13:05:52;;;;;;;8.17;1.20;;;;;;;;;;4885170;29;20457;-90
2023/04/08 13:08:20;;;;;;;15.27;2.33;;;;;;;;;;4885633;29;20452;-89
2023/04/08 13:10:48;;;;;;;6.77;1.33;;;;;;;;;;4885553;29;20458;-90
2023/04/08 13:13:17;;;;;;;11.60;1.80;;;;;;;;;;4885025;29;20445;-89
2023/04/08 13:15:44;;;;;;;7.70;1.53;;;;;;;;;;4900758;29;20808;-89
2023/04/08 13:18:27;;;;;;;8.47;1.33;;;;;;;;;;4900871;29;20803;-89
2023/04/08 13:20:55;;;;;;;8.73;2.00;;;;;;;;;;4900243;29;20966;-90
2023/04/08 13:23:22;;;;;;;4.13;1.60;;;;;;;;;;4884805;29;20841;-90
2023/04/08 13:25:51;;;;;;;5.70;1.63;;;;;;;;;;4885055;29;20958;-90
2023/04/08 13:28:18;;;;;;;7.40;1.50;;;;;;;;;;4901191;29;20461;-89
2023/04/08 13:30:46;;;;;;;11.93;1.60;;;;;;;;;;4884942;29;20450;-90
2023/04/08 13:33:13;;;;;;;11.70;1.53;;;;;;;;;;4884282;29;20461;-90
2023/04/08 13:35:40;;;;;;;7.50;1.67;;;;;;;;;;4899912;29;20548;-90
2023/04/08 13:38:08;;;;;;;8.90;1.63;;;;;;;;;;4899955;29;20461;-90
2023/04/08 13:40:35;;;;;;;12.60;1.70;;;;;;;;;;4884900;29;20445;-89
2023/04/08 13:43:03;;;;;;;6.07;2.60;;;;;;;;;;4884454;29;20979;-90
2023/04/08 13:45:30;;;;;;;11.37;1.63;;;;;;;;;;4884212;29;21047;-90
2023/04/08 13:47:58;;;;;;;5.83;1.30;;;;;;;;;;4899643;29;20995;-89
2023/04/08 13:50:26;;;;;;;12.13;2.07;;;;;;;;;;4899721;29;20937;-90
2023/04/08 13:52:55;;;;;;;11.23;1.70;;;;;;;;;;4884348;29;20540;-90
2023/04/08 13:55:23;;;;;;;10.27;2.80;;;;;;;;;;4884692;29;20468;-90
2023/04/08 13:57:50;;;;;;;7.80;1.80;;;;;;;;;;4899681;29;20457;-90
2023/04/08 14:00:17;;;;;;;7.00;1.53;;;;;;;;;;4899743;29;20454;-88
2023/04/08 14:02:45;;;;;;;5.17;1.50;;;;;;;;;;4884127;29;20446;-90
2023/04/08 14:05:21;;;;;;;14.03;1.83;;;;;;;;;;4884144;29;20445;-90
2023/04/08 14:07:48;;;;;;;8.30;1.50;;;;;;;;;;4899552;29;20536;-90
2023/04/08 14:10:17;;;;;;;9.70;1.77;;;;;;;;;;4899625;29;20458;-90
2023/04/08 14:12:45;;;;;;;7.30;1.70;;;;;;;;;;4905167;29;20804;-90
2023/04/08 14:15:19;;;;;;;10.20;1.37;;;;;;;;;;4903048;29;20449;-90
2023/04/08 14:17:47;;;;;;;11.83;1.77;;;;;;;;;;4918283;29;20962;-90
2023/04/08 14:20:14;;;;;;;7.90;1.53;;;;;;;;;;4918193;29;20445;-90
2023/04/08 14:22:41;;;;;;;12.30;2.63;;;;;;;;;;4902571;29;20445;-91
2023/04/08 14:25:11;;;;;;;11.13;2.40;;;;;;;;;;4918355;29;20451;-90
2023/04/08 14:27:42;;;;;;;9.03;2.00;;;;;;;;;;4917928;29;20449;-90
2023/04/08 14:30:25;;;;;;;11.33;2.10;;;;;;;;;;4918266;29;20935;-90
2023/04/08 14:32:53;;;;;;;13.30;1.90;;;;;;;;;;4902445;29;20437;-90
2023/04/08 14:35:23;;;;;;;8.33;1.10;;;;;;;;;;4917672;29;20449;-90
2023/04/08 14:37:50;;;;;;;15.00;2.07;;;;;;;;;;4917841;29;20453;-90
2023/04/08 14:40:18;;;;;;;9.43;2.00;;;;;;;;;;4902761;29;20448;-90
2023/04/08 14:42:48;;;;;;;21.73;1.97;;;;;;;;;;4902124;29;20450;-90
2023/04/08 14:45:16;;;;;;;11.23;2.07;;;;;;;;;;4902400;29;20883;-89
2023/04/08 14:47:44;;;;;;;9.37;2.07;;;;;;;;;;4917455;29;20508;-89
2023/04/08 14:50:12;;;;;;;13.93;3.03;;;;;;;;;;4917314;29;20448;-89
2023/04/08 14:52:39;;;;;;;14.07;2.53;;;;;;;;;;4901780;29;20463;-89
2023/04/08 14:55:09;;;;;;;37.57;4.57;;;;;;;;;;4901798;29;20574;-90
2023/04/08 14:57:37;;;;;;;9.67;2.40;;;;;;;;;;4917680;29;20947;-91
2023/04/08 15:00:05;;;;;;;14.27;2.10;;;;;;;;;;4901814;29;20449;-90
2023/04/08 15:02:32;;;;;;;13.47;2.13;;;;;;;;;;4917404;29;20456;-90
2023/04/08 15:05:00;;;;;;;9.10;2.43;;;;;;;;;;4901831;29;20496;-90
2023/04/08 15:07:27;;;;;;;8.00;1.87;;;;;;;;;;4901689;29;20826;-90
2023/04/08 15:09:55;;;;;;;7.50;1.60;;;;;;;;;;4901546;29;20452;-90
2023/04/08 15:12:23;;;;;;;9.53;1.67;;;;;;;;;;4917428;29;20448;-90
2023/04/08 15:14:51;;;;;;;12.57;2.57;;;;;;;;;;4917525;29;20437;-90
2023/04/08 15:17:18;;;;;;;10.57;2.77;;;;;;;;;;4917294;29;20961;-90
2023/04/08 15:19:46;;;;;;;15.33;2.37;;;;;;;;;;4901628;29;20445;-90
2023/04/08 15:22:15;;;;;;;14.27;1.77;;;;;;;;;;4902295;29;20476;-90
2023/04/08 15:24:43;;;;;;;15.17;2.43;;;;;;;;;;4916285;29;20481;-90
2023/04/08 15:27:14;;;;;;;11.77;2.77;;;;;;;;;;4917065;29;20448;-89
2023/04/08 15:29:42;;;;;;;9.33;1.77;;;;;;;;;;4901280;29;20448;-90
2023/04/08 15:32:11;;;;;;;11.10;2.20;;;;;;;;;;4917088;29;20441;-90
2023/04/08 15:34:39;;;;;;;10.40;2.57;;;;;;;;;;4917131;29;20452;-90
2023/04/08 15:37:06;;;;;;;16.10;2.27;;;;;;;;;;4901290;29;20797;-90
2023/04/08 15:39:34;;;;;;;9.13;2.13;;;;;;;;;;4916929;29;20447;-89
2023/04/08 15:42:02;;;;;;;13.60;2.00;;;;;;;;;;4902179;29;20453;-89
2023/04/08 15:44:31;;;;;;;13.87;2.17;;;;;;;;;;4916919;29;20580;-90
2023/04/08 15:47:17;;;;;;;10.20;2.33;;;;;;;;;;4874474;29;20814;-89
2023/04/08 15:49:47;;;;;;;11.60;2.30;;;;;;;;;;4866975;29;20959;-91
2023/04/08 15:52:15;;;;;;;17.13;2.50;;;;;;;;;;4882544;29;20457;-90
2023/04/08 15:54:43;;;;;;;9.10;2.00;;;;;;;;;;4882495;29;20457;-89
2023/04/08 15:57:10;;;;;;;10.17;2.80;;;;;;;;;;4882546;29;20453;-89
2023/04/08 15:59:39;;;;;;;14.33;2.67;;;;;;;;;;4867401;29;20460;-89
2023/04/08 16:02:07;;;;;;;10.80;3.17;;;;;;;;;;4898610;29;20454;-90
2023/04/08 16:04:35;;;;;;;12.60;2.60;;;;;;;;;;4866715;29;20493;-90
2023/04/08 16:07:03;;;;;;;10.30;2.20;;;;;;;;;;4866933;29;20442;-90
2023/04/08 16:09:30;;;;;;;20.37;2.30;;;;;;;;;;4882130;29;20532;-90
2023/04/08 16:11:58;;;;;;;8.97;1.47;;;;;;;;;;4882147;29;20472;-90
2023/04/08 16:14:26;;;;;;;11.30;2.60;;;;;;;;;;4880189;29;20457;-89
2023/04/08 16:16:53;;;;;;;11.83;1.97;;;;;;;;;;4866831;29;20446;-89
2023/04/08 16:19:21;;;;;;;17.37;2.93;;;;;;;;;;4882129;29;20445;-89
2023/04/08 16:21:49;;;;;;;13.83;2.33;;;;;;;;;;4881900;29;20541;-90
2023/04/08 16:24:19;;;;;;;11.13;2.40;;;;;;;;;;4866535;29;20501;-90
2023/04/08 16:26:46;;;;;;;9.90;2.27;;;;;;;;;;4881988;29;20445;-89
2023/04/08 16:29:15;;;;;;;16.73;2.70;;;;;;;;;;4882276;29;20453;-90
2023/04/08 16:31:44;;;;;;;10.03;2.10;;;;;;;;;;4866895;29;20810;-90
2023/04/08 16:34:12;;;;;;;7.90;2.13;;;;;;;;;;4867285;29;20580;-90
2023/04/08 16:36:39;;;;;;;10.30;1.83;;;;;;;;;;4885952;29;20529;-90
2023/04/08 16:39:07;;;;;;;13.80;2.43;;;;;;;;;;4886045;29;20449;-89
2023/04/08 16:41:35;;;;;;;18.83;3.33;;;;;;;;;;4885584;29;20861;-90
2023/04/08 16:44:02;;;;;;;13.60;1.97;;;;;;;;;;4870028;29;20523;-90
2023/04/08 16:46:30;;;;;;;20.63;2.70;;;;;;;;;;4895666;29;20565;-90
2023/04/08 16:48:57;;;;;;;9.70;2.40;;;;;;;;;;4900578;29;20458;-89
2023/04/08 16:51:24;;;;;;;9.93;2.00;;;;;;;;;;4900866;29;20449;-89
2023/04/08 16:53:51;;;;;;;13.77;2.50;;;;;;;;;;4901002;29;20453;-90
2023/04/08 16:56:21;;;;;;;11.00;2.10;;;;;;;;;;4900902;29;20529;-90
2023/04/08 16:58:50;;;;;;;9.43;1.80;;;;;;;;;;4885645;29;20940;-89
2023/04/08 17:01:17;;;;;;;9.77;2.00;;;;;;;;;;4900779;29;20456;-90
2023/04/08 17:03:46;;;;;;;8.00;1.60;;;;;;;;;;4900655;29;20505;-89
2023/04/08 17:06:14;;;;;;;11.73;2.13;;;;;;;;;;4900915;29;20445;-90
2023/04/08 17:08:44;;;;;;;7.17;1.80;;;;;;;;;;4900513;29;20486;-90
2023/04/08 17:11:11;;;;;;;10.20;2.33;;;;;;;;;;4900585;29;20450;-89
2023/04/08 17:13:42;;;;;;;6.13;2.00;;;;;;;;;;4900572;29;20810;-89
2023/04/08 17:16:12;;;;;;;7.43;1.80;;;;;;;;;;4900747;29;20474;-90
2023/04/08 17:18:40;;;;;;;8.23;1.80;;;;;;;;;;4899987;29;20451;-89
2023/04/08 17:21:08;;;;;;;9.83;2.00;;;;;;;;;;4900784;29;20960;-90
2023/04/08 17:23:35;;;;;;;14.07;2.40;;;;;;;;;;4900017;29;20481;-90
2023/04/08 17:26:06;;;;;;;12.83;2.27;;;;;;;;;;4915905;29;20828;-90
2023/04/08 17:28:33;;;;;;;10.27;2.10;;;;;;;;;;4900299;29;20456;-89
2023/04/08 17:31:02;;;;;;;13.63;2.43;;;;;;;;;;4900205;29;20523;-89
2023/04/08 17:33:30;;;;;;;12.13;2.50;;;;;;;;;;4900480;29;20450;-89
2023/04/08 17:35:58;;;;;;;12.23;2.00;;;;;;;;;;4900320;29;20521;-89
2023/04/08 17:38:26;;;;;;;11.30;2.57;;;;;;;;;;4900154;29;20454;-89
2023/04/08 17:40:57;;;;;;;8.40;2.33;;;;;;;;;;4900024;29;20478;-89
2023/04/08 17:43:24;;;;;;;8.57;2.20;;;;;;;;;;4900014;29;20465;-89
2023/04/08 17:45:52;;;;;;;14.53;3.53;;;;;;;;;;4898860;29;20493;-89
2023/04/08 17:48:21;;;;;;;9.90;2.10;;;;;;;;;;4899977;29;20821;-89
2023/04/08 17:50:48;;;;;;;18.40;2.53;;;;;;;;;;4901057;29;20450;-89
2023/04/08 17:53:22;;;;;;;9.77;1.93;;;;;;;;;;4899862;29;20458;-89
2023/04/08 17:55:49;;;;;;;11.20;2.40;;;;;;;;;;4900485;29;20468;-89
2023/04/08 17:58:17;;;;;;;12.33;2.60;;;;;;;;;;4895071;29;20469;-89
2023/04/08 18:00:47;;;;;;;12.30;2.57;;;;;;;;;;4916853;29;20452;-89
2023/04/08 18:03:15;;;;;;;15.43;2.17;;;;;;;;;;4903825;29;20440;-90
2023/04/08 18:05:43;;;;;;;18.50;2.80;;;;;;;;;;4902794;29;20930;-90
2023/04/08 18:08:10;;;;;;;12.50;2.20;;;;;;;;;;4918051;29;20456;-90
2023/04/08 18:10:41;;;;;;;18.83;3.47;;;;;;;;;;4918356;29;20469;-89
2023/04/08 18:13:11;;;;;;;17.27;2.90;;;;;;;;;;4916514;29;20448;-89
2023/04/08 18:15:38;;;;;;;8.87;2.70;;;;;;;;;;4895450;29;20536;-89
2023/04/08 18:18:05;;;;;;;15.83;3.03;;;;;;;;;;4915630;29;20461;-89
2023/04/08 18:20:35;;;;;;;15.97;2.17;;;;;;;;;;4927337;29;20453;-89
2023/04/08 18:23:03;;;;;;;23.70;2.80;;;;;;;;;;4918104;29;20540;-89
2023/04/08 18:25:33;;;;;;;24.83;2.20;;;;;;;;;;4917763;29;20492;-89
2023/04/08 18:28:00;;;;;;;10.20;2.50;;;;;;;;;;4917884;29;20950;-89
2023/04/08 18:30:29;;;;;;;8.20;2.43;;;;;;;;;;4918821;29;21471;-89
2023/04/08 18:32:56;;;;;;;10.73;2.80;;;;;;;;;;4917782;29;20927;-90
2023/04/08 18:35:25;;;;;;;10.03;3.03;;;;;;;;;;4902589;29;20512;-90
2023/04/08 18:37:52;;;;;;;15.37;2.03;;;;;;;;;;4917560;29;20512;-89
2023/04/08 18:40:20;;;;;;;7.63;2.10;;;;;;;;;;4917714;29;20455;-90
2023/04/08 18:42:47;;;;;;;6.40;1.40;;;;;;;;;;4917908;29;20451;-89
2023/04/08 18:48:00;;;;;;;8.83;2.13;;;;;;;;;;4917949;29;20809;-89
2023/04/08 18:50:28;;;;;;;6.83;1.70;;;;;;;;;;4918895;29;20539;-89
2023/04/08 18:52:55;;;;;;;11.23;1.47;;;;;;;;;;4904605;29;20461;-89
2023/04/08 18:55:22;;;;;;;11.50;1.30;;;;;;;;;;4930550;29;20477;-89
2023/04/08 18:57:50;;;;;;;7.80;2.07;;;;;;;;;;4913845;29;20448;-89
2023/04/08 19:00:18;;;;;;;7.13;1.70;;;;;;;;;;4920780;29;20436;-89
2023/04/08 19:02:45;;;;;;;7.77;2.30;;;;;;;;;;4908588;29;20475;-91
2023/04/08 19:05:12;;;;;;;11.57;1.50;;;;;;;;;;4901781;29;20493;-88
2023/04/08 19:07:39;;;;;;;4.47;1.63;;;;;;;;;;4901734;29;20457;-89
2023/04/08 19:10:07;;;;;;;6.83;1.50;;;;;;;;;;4917006;29;20886;-87
2023/04/08 19:12:34;;;;;;;10.13;1.80;;;;;;;;;;4913898;29;20461;-88
2023/04/08 19:15:03;;;;;;;10.77;2.00;;;;;;;;;;4897885;29;20833;-89
2023/04/08 19:17:30;;;;;;;10.30;1.80;;;;;;;;;;4889059;29;20952;-88
2023/04/08 19:19:57;;;;;;;7.30;1.50;;;;;;;;;;4901369;29;20453;-89
2023/04/08 19:22:25;;;;;;;8.63;1.60;;;;;;;;;;4901254;29;20441;-88
2023/04/08 19:24:52;;;;;;;7.83;1.97;;;;;;;;;;4900891;29;20495;-89
2023/04/08 19:27:20;;;;;;;12.97;1.97;;;;;;;;;;4902555;29;20505;-87
2023/04/08 19:29:48;;;;;;;12.67;2.17;;;;;;;;;;4936673;29;20448;-88
2023/04/08 19:32:15;;;;;;;9.20;1.57;;;;;;;;;;4935153;29;20451;-88
2023/04/08 19:34:43;;;;;;;10.37;3.17;;;;;;;;;;4919909;29;20440;-88
2023/04/08 19:37:10;;;;;;;11.47;2.70;;;;;;;;;;4919458;29;20527;-87
2023/04/08 19:39:39;;;;;;;14.30;2.43;;;;;;;;;;4919795;29;20448;-88
2023/04/08 19:42:08;;;;;;;16.60;2.37;;;;;;;;;;4933554;29;20455;-87
2023/04/08 19:44:36;;;;;;;10.70;2.30;;;;;;;;;;4901130;29;21056;-88
2023/04/08 19:47:04;;;;;;;11.63;1.80;;;;;;;;;;4916448;29;20555;-89
2023/04/08 19:49:32;;;;;;;6.80;1.97;;;;;;;;;;4901280;29;20879;-88
2023/04/08 19:52:00;;;;;;;9.43;2.00;;;;;;;;;;4900955;29;20453;-88
2023/04/08 19:54:28;;;;;;;27.87;2.60;;;;;;;;;;4901010;29;20826;-88
2023/04/08 19:56:58;;;;;;;14.00;2.10;;;;;;;;;;4917239;29;21005;-87
2023/04/08 19:59:25;;;;;;;20.37;2.17;;;;;;;;;;4900951;29;20449;-89
2023/04/08 20:01:54;;;;;;;7.47;1.57;;;;;;;;;;4916500;29;20449;-88
2023/04/08 20:04:21;;;;;;;4.33;1.53;;;;;;;;;;4916513;29;20509;-88
2023/04/08 20:06:49;;;;;;;13.10;1.90;;;;;;;;;;4900623;29;20456;-87
2023/04/08 20:09:17;;;;;;;8.23;1.40;;;;;;;;;;4930532;29;20440;-87
2023/04/08 20:11:45;;;;;;;8.37;2.03;;;;;;;;;;4935201;29;20853;-88
2023/04/08 20:14:12;;;;;;;7.07;1.37;;;;;;;;;;4934965;29;20467;-88
2023/04/08 20:16:40;;;;;;;5.37;1.57;;;;;;;;;;4925643;29;20528;-87
2023/04/08 20:19:07;;;;;;;8.93;2.00;;;;;;;;;;4896941;29;20456;-88
2023/04/08 20:21:35;;;;;;;3.43;1.77;;;;;;;;;;4898096;29;20454;-88
2023/04/08 20:24:04;;;;;;;4.03;1.50;;;;;;;;;;4915542;29;20446;-89
2023/04/08 20:26:36;;;;;;;9.37;2.00;;;;;;;;;;4912028;29;20502;-88
2023/04/08 20:29:05;;;;;;;8.93;1.63;;;;;;;;;;4896606;29;20446;-88
2023/04/08 20:31:33;;;;;;;7.60;2.00;;;;;;;;;;4897023;29;20458;-88
2023/04/08 20:34:02;;;;;;;7.47;1.80;;;;;;;;;;4896661;29;20558;-88